Time;durP1;ratioP1;P1;durP2;ratioP2;P2;SDS_P1;SDS_P2;PMS_P1;PMS_P2;Temp;Humidity;BMP_temperature;BMP_pressure;BME280_temperature;BME280_humidity;BME280_pressure;Samples;Min_cycle;Max_cycle;Signal;HPM_P1;HPM_P2
2022/11/28 00:01:33;;;;;;;69.50;37.70;;;;;;;5.14;74.55;100992.78;4831867;28;101053;-93
2022/11/28 00:03:59;;;;;;;66.20;38.10;;;;;;;5.10;74.60;101006.69;4846720;28;101286;-93
2022/11/28 00:06:26;;;;;;;66.07;37.00;;;;;;;5.06;74.70;100999.72;4847036;28;96559;-93
2022/11/28 00:08:51;;;;;;;62.53;36.90;;;;;;;5.06;74.44;101007.53;4863166;28;96912;-93
2022/11/28 00:11:17;;;;;;;65.90;35.77;;;;;;;4.82;74.86;100985.00;4868596;28;101247;-93
2022/11/28 00:13:44;;;;;;;60.33;34.97;;;;;;;4.53;74.99;100928.66;4870867;28;97687;-94
2022/11/28 00:16:17;;;;;;;64.70;35.23;;;;;;;4.78;75.47;100975.47;4862891;28;96693;-94
2022/11/28 00:18:42;;;;;;;62.67;35.13;;;;;;;4.84;74.89;100970.28;4862055;28;96728;-93
2022/11/28 00:21:10;;;;;;;74.07;38.97;;;;;;;4.89;74.33;100982.41;4834764;28;101186;-92
2022/11/28 00:23:36;;;;;;;65.00;36.23;;;;;;;4.84;74.64;100983.28;4865564;28;101775;-94
2022/11/28 00:26:07;;;;;;;59.57;33.80;;;;;;;4.62;74.93;100957.25;4846734;28;96817;-92
2022/11/28 00:28:40;;;;;;;56.45;33.53;;;;;;;4.35;75.29;100900.03;4862825;28;96808;-93
2022/11/28 00:31:11;;;;;;;55.67;33.00;;;;;;;4.51;74.75;100928.66;4831270;28;100206;-93
2022/11/28 00:33:37;;;;;;;62.35;34.65;;;;;;;4.84;74.85;100978.06;4831493;28;99775;-94
2022/11/28 00:36:06;;;;;;;68.27;36.90;;;;;;;4.51;73.88;100910.47;4832072;28;96634;-93
2022/11/28 00:38:42;;;;;;;59.87;35.03;;;;;;;4.28;74.64;100913.03;4846837;28;96766;-93
2022/11/28 00:41:10;;;;;;;62.07;35.40;;;;;;;4.45;74.52;100945.97;4834544;28;100734;-93
2022/11/28 00:43:39;;;;;;;60.00;35.37;;;;;;;4.18;74.75;100902.63;4860179;28;100276;-93
2022/11/28 00:46:05;;;;;;;54.37;32.93;;;;;;;4.33;75.00;100933.81;4873247;28;96762;-93
2022/11/28 00:48:33;;;;;;;58.60;33.07;;;;;;;4.35;74.79;100932.09;4884322;28;96877;-92
2022/11/28 00:51:14;;;;;;;60.97;35.27;;;;;;;4.63;74.06;100976.34;4859056;28;101428;-92
2022/11/28 00:53:41;;;;;;;59.20;33.80;;;;;;;4.55;74.51;100963.31;4855736;28;98029;-93
2022/11/28 00:56:08;;;;;;;60.17;33.93;;;;;;;4.38;74.39;100936.44;4878711;28;96909;-93
2022/11/28 00:58:34;;;;;;;59.47;33.53;;;;;;;4.67;74.58;100972.88;4867428;28;98416;-93
2022/11/28 01:01:05;;;;;;;61.30;35.87;;;;;;;4.37;74.01;100913.91;4850876;28;100238;-93
2022/11/28 01:03:33;;;;;;;55.38;32.17;;;;;;;4.50;74.14;100952.91;4874651;28;99870;-93
2022/11/28 01:05:59;;;;;;;60.67;34.63;;;;;;;4.53;74.14;100954.66;4865301;28;96604;-94
2022/11/28 01:08:24;;;;;;;53.57;33.00;;;;;;;4.18;74.06;100900.03;4849316;28;96913;-93
2022/11/28 01:11:27;;;;;;;56.80;32.67;;;;;;;4.56;73.93;100962.44;4849728;28;100694;-92
2022/11/28 01:13:57;;;;;;;52.07;31.87;;;;;;;4.46;73.99;100919.97;4864404;28;100175;-93
2022/11/28 01:16:34;;;;;;;56.63;32.40;;;;;;;4.58;73.49;100944.25;4865142;28;96702;-92
2022/11/28 01:19:00;;;;;;;49.77;31.13;;;;;;;4.62;73.52;100961.59;4834145;28;96861;-92
2022/11/28 01:21:26;;;;;;;58.20;31.90;;;;;;;4.60;73.22;100940.78;4848777;28;101763;-93
2022/11/28 01:23:51;;;;;;;56.10;32.73;;;;;;;4.53;73.48;100936.44;4864141;28;99692;-93
2022/11/28 01:26:19;;;;;;;54.97;33.47;;;;;;;4.57;73.60;100933.00;4848255;28;96812;-92
2022/11/28 01:28:45;;;;;;;52.23;32.57;;;;;;;4.48;73.73;100928.66;4866829;28;96830;-93
2022/11/28 01:31:14;;;;;;;60.33;34.60;;;;;;;4.30;73.73;100892.22;4866696;28;101936;-93
2022/11/28 01:33:40;;;;;;;53.00;32.97;;;;;;;4.17;73.76;100870.56;4851174;28;100686;-93
2022/11/28 01:36:06;;;;;;;66.30;35.47;;;;;;;4.43;73.38;100922.59;4840566;28;96870;-93
2022/11/28 01:38:33;;;;;;;56.70;33.87;;;;;;;4.08;73.33;100855.84;4864952;28;96889;-92
2022/11/28 01:40:58;;;;;;;56.50;33.57;;;;;;;4.16;73.50;100893.94;4864247;28;100823;-92
2022/11/28 01:43:24;;;;;;;60.27;33.77;;;;;;;3.81;73.83;100846.28;4851470;28;101334;-93
2022/11/28 01:45:50;;;;;;;58.67;35.90;;;;;;;3.85;73.79;100845.41;4868788;28;96883;-93
2022/11/28 01:48:29;;;;;;;63.03;36.10;;;;;;;3.86;73.64;100836.75;4860888;28;96993;-93
2022/11/28 01:50:57;;;;;;;57.37;34.40;;;;;;;3.75;73.86;100841.09;4864828;28;100168;-93
2022/11/28 01:53:26;;;;;;;58.13;34.77;;;;;;;3.72;74.30;100841.03;4850798;28;100892;-94
2022/11/28 01:55:57;;;;;;;57.87;34.57;;;;;;;3.86;74.75;100852.34;4862806;28;96858;-93
2022/11/28 01:58:22;;;;;;;60.03;35.57;;;;;;;3.67;74.16;100824.63;4854282;28;96901;-93
2022/11/28 02:00:49;;;;;;;58.67;34.53;;;;;;;3.79;73.85;100841.94;4852877;28;101077;-94
2022/11/28 02:03:29;;;;;;;61.50;35.87;;;;;;;3.66;73.57;100828.06;4870479;28;101068;-94
2022/11/28 02:05:56;;;;;;;60.50;36.00;;;;;;;3.53;74.00;100829.75;4887629;28;96764;-93
2022/11/28 02:08:21;;;;;;;58.00;36.67;;;;;;;3.77;74.03;100844.53;4873284;28;96808;-92
2022/11/28 02:11:05;;;;;;;61.60;37.00;;;;;;;3.86;74.00;100854.06;4848224;28;101603;-93
2022/11/28 02:13:50;;;;;;;69.17;37.00;;;;;;;3.90;73.48;100850.63;4849977;28;100854;-93
2022/11/28 02:16:26;;;;;;;66.53;40.57;;;;;;;4.14;73.58;100885.31;4858027;28;96742;-92
2022/11/28 02:19:00;;;;;;;69.20;40.23;;;;;;;4.16;73.46;100876.66;4865546;28;96778;-93
2022/11/28 02:21:35;;;;;;;73.00;42.00;;;;;;;3.89;73.92;100854.06;4881450;28;100558;-92
2022/11/28 02:24:15;;;;;;;68.83;42.40;;;;;;;3.99;74.14;100873.16;4886140;28;100181;-94
2022/11/28 02:27:07;;;;;;;75.37;45.70;;;;;;;4.03;73.46;100867.94;4869579;28;96828;-93
2022/11/28 02:29:40;;;;;;;80.33;44.77;;;;;;;3.86;73.94;100856.66;4833180;28;96850;-93
2022/11/28 02:32:28;;;;;;;74.73;43.30;;;;;;;3.84;74.79;100868.81;4848328;28;99731;-93
2022/11/28 02:34:55;;;;;;;75.23;44.37;;;;;;;3.92;74.42;100866.19;4848341;28;101782;-92
2022/11/28 02:37:37;;;;;;;72.33;43.43;;;;;;;3.83;73.84;100854.06;4862126;28;96701;-93
2022/11/28 02:40:07;;;;;;;83.47;45.00;;;;;;;3.75;74.00;100846.28;4881430;28;96850;-92
2022/11/28 02:42:46;;;;;;;73.83;41.90;;;;;;;3.88;74.48;100865.34;4848385;28;98669;-94
2022/11/28 02:45:21;;;;;;;78.07;42.73;;;;;;;3.82;74.54;100861.00;4863802;28;101386;-92
2022/11/28 02:47:58;;;;;;;80.70;44.07;;;;;;;3.43;74.85;100803.78;4832696;28;97335;-92
2022/11/28 02:50:31;;;;;;;79.23;42.63;;;;;;;3.84;74.84;100874.00;4876018;28;96787;-93
2022/11/28 02:53:10;;;;;;;79.30;42.30;;;;;;;3.90;74.67;100863.63;4872222;28;100150;-92
2022/11/28 02:55:40;;;;;;;76.50;43.60;;;;;;;3.69;74.62;100824.59;4856764;28;100184;-92
2022/11/28 02:58:06;;;;;;;80.80;43.40;;;;;;;3.88;74.78;100864.47;4866752;28;96733;-92
2022/11/28 03:00:34;;;;;;;72.83;41.27;;;;;;;3.95;74.60;100869.66;4865304;28;96849;-93
2022/11/28 03:03:27;;;;;;;76.00;41.80;;;;;;;3.74;74.78;100834.13;4861478;28;101547;-92
2022/11/28 03:06:12;;;;;;;74.93;41.13;;;;;;;3.84;75.17;100863.63;4901989;28;100386;-92
2022/11/28 03:08:43;;;;;;;88.90;45.93;;;;;;;3.96;74.77;100863.63;4861066;28;96820;-93
2022/11/28 03:11:57;;;;;;;83.25;43.03;;;;;;;3.88;74.96;100860.16;4859653;28;96684;-92
2022/11/28 03:14:52;;;;;;;82.40;44.20;;;;;;;3.83;75.13;100843.69;4818667;28;100308;-93
2022/11/28 03:17:52;;;;;;;86.87;45.57;;;;;;;3.76;75.54;100844.53;4847756;28;101191;-93
2022/11/28 03:20:49;;;;;;;91.80;44.17;;;;;;;3.84;75.63;100840.25;4866303;28;97165;-93
2022/11/28 03:23:19;;;;;;;84.77;43.47;;;;;;;3.88;75.88;100844.56;4875235;28;96922;-92
2022/11/28 03:25:45;;;;;;;87.10;43.03;;;;;;;3.98;75.33;100843.69;4870260;28;101517;-93
2022/11/28 03:28:23;;;;;;;89.03;45.10;;;;;;;4.04;74.92;100845.44;4882415;28;97873;-94
2022/11/28 03:30:58;;;;;;;95.60;47.27;;;;;;;3.91;75.19;100834.16;4897071;28;96650;-92
2022/11/28 03:33:27;;;;;;;89.33;42.90;;;;;;;3.67;75.54;100792.59;4861411;28;96752;-92
2022/11/28 03:35:59;;;;;;;91.97;45.63;;;;;;;3.80;76.04;100846.28;4846927;28;101245;-93
2022/11/28 03:38:30;;;;;;;86.85;43.20;;;;;;;3.79;76.13;100836.75;4856903;28;100163;-93
2022/11/28 03:40:59;;;;;;;89.45;47.38;;;;;;;3.84;76.28;100837.63;4848763;28;96755;-93
2022/11/28 03:43:29;;;;;;;91.03;45.23;;;;;;;3.51;76.12;100771.78;4860219;28;97981;-93
2022/11/28 03:45:57;;;;;;;94.27;46.53;;;;;;;3.57;76.08;100792.56;4849987;28;101348;-94
2022/11/28 03:48:26;;;;;;;87.17;46.60;;;;;;;3.32;76.29;100747.53;4865609;28;98056;-93
2022/11/28 03:51:08;;;;;;;93.57;46.47;;;;;;;3.75;76.19;100803.84;4843084;28;96772;-93
2022/11/28 03:53:43;;;;;;;81.20;44.30;;;;;;;3.79;76.32;100801.25;4845027;28;96751;-93
2022/11/28 03:56:16;;;;;;;86.77;47.93;;;;;;;3.84;75.71;100807.34;4873917;28;100876;-93
2022/11/28 03:59:06;;;;;;;93.97;48.40;;;;;;;3.56;76.58;100793.44;4846971;28;101222;-93
2022/11/28 04:01:52;;;;;;;92.27;46.67;;;;;;;3.76;76.89;100818.56;4847076;28;96814;-93
2022/11/28 04:04:31;;;;;;;86.83;46.50;;;;;;;3.78;76.53;100801.25;4859110;28;96670;-93
2022/11/28 04:07:04;;;;;;;94.70;47.97;;;;;;;3.78;76.74;100809.94;4858928;28;100916;-93
2022/11/28 04:09:36;;;;;;;85.13;46.37;;;;;;;3.78;77.03;100811.63;4862637;28;97987;-93
2022/11/28 04:12:09;;;;;;;86.57;44.72;;;;;;;3.80;76.88;100799.53;4867820;28;96705;-92
2022/11/28 04:14:38;;;;;;;89.93;48.53;;;;;;;3.47;76.50;100736.31;4854205;28;96797;-93
2022/11/28 04:17:16;;;;;;;94.40;48.87;;;;;;;3.49;76.74;100746.66;4863643;28;101458;-93
2022/11/28 04:20:15;;;;;;;91.60;47.67;;;;;;;3.70;77.08;100793.47;4855576;28;100257;-92
2022/11/28 04:22:45;;;;;;;85.03;49.73;;;;;;;3.93;76.36;100800.41;4843699;28;96850;-94
2022/11/28 04:25:13;;;;;;;99.93;51.60;;;;;;;3.70;76.82;100790.00;4850156;28;96852;-93
2022/11/28 04:31:26;;;;;;;86.57;47.37;;;;;;;3.66;77.76;100791.69;4895344;28;96668;-93
2022/11/28 04:33:57;;;;;;;84.27;48.67;;;;;;;3.72;77.34;100798.63;4853487;28;96777;-95
2022/11/28 04:36:24;;;;;;;87.50;45.07;;;;;;;3.82;77.67;100795.22;4831263;28;96777;-93
2022/11/28 04:38:55;;;;;;;88.23;48.60;;;;;;;3.67;76.73;100756.25;4830928;28;101127;-94
2022/11/28 04:41:58;;;;;;;90.77;49.23;;;;;;;3.85;76.89;100790.00;4831466;28;101077;-93
2022/11/28 04:44:36;;;;;;;91.20;55.50;;;;;;;3.71;77.29;100789.13;4875454;28;96889;-93
2022/11/28 04:47:02;;;;;;;98.57;56.30;;;;;;;3.55;77.93;100796.91;4884478;28;96795;-91
2022/11/28 04:49:28;;;;;;;95.60;51.90;;;;;;;3.53;77.81;100796.03;4884413;28;98112;-93
2022/11/28 04:52:03;;;;;;;87.43;47.77;;;;;;;3.43;78.94;100795.97;4884060;28;100154;-93
2022/11/28 04:54:53;;;;;;;82.80;45.80;;;;;;;3.56;78.97;100797.75;4883349;28;96882;-93
2022/11/28 04:57:32;;;;;;;88.00;47.07;;;;;;;3.65;78.05;100800.38;4874489;28;96794;-92
2022/11/28 05:00:01;;;;;;;88.97;49.10;;;;;;;3.74;77.66;100792.59;4883429;28;99988;-93
2022/11/28 05:02:27;;;;;;;83.77;45.23;;;;;;;3.55;78.37;100799.50;4861547;28;101077;-94
2022/11/28 05:04:54;;;;;;;99.87;56.03;;;;;;;3.61;77.63;100793.44;4862117;28;96702;-94
2022/11/28 05:07:20;;;;;;;83.83;48.47;;;;;;;3.35;78.05;100768.28;4846749;28;96648;-93
2022/11/28 05:09:46;;;;;;;96.97;54.17;;;;;;;3.38;77.95;100772.63;4862217;28;98410;-94
2022/11/28 05:12:12;;;;;;;88.77;47.57;;;;;;;3.26;78.83;100768.28;4846271;28;101409;-93
2022/11/28 05:14:39;;;;;;;89.30;48.43;;;;;;;3.29;79.39;100767.41;4846411;28;96641;-93
2022/11/28 05:20:28;;;;;;;90.40;48.83;;;;;;;3.72;77.76;100796.91;4862143;28;101256;-93
2022/11/28 05:22:53;;;;;;;84.30;47.60;;;;;;;3.60;78.18;100804.69;4830491;28;101658;-94
2022/11/28 05:25:19;;;;;;;78.90;43.60;;;;;;;3.32;78.49;100799.44;4846223;28;96680;-92
2022/11/28 05:27:45;;;;;;;77.03;41.53;;;;;;;3.34;78.76;100802.88;4846219;28;96908;-92
2022/11/28 05:30:11;;;;;;;78.70;42.63;;;;;;;3.19;78.36;100761.31;4861770;28;100502;-94
2022/11/28 05:32:36;;;;;;;88.30;42.33;;;;;;;3.43;78.43;100794.25;4861227;28;101400;-93
2022/11/28 05:35:03;;;;;;;87.20;44.53;;;;;;;3.16;78.49;100750.94;4846001;28;96668;-93
2022/11/28 05:37:28;;;;;;;80.77;41.13;;;;;;;3.21;78.50;100766.53;4846296;28;96911;-93
2022/11/28 05:39:54;;;;;;;75.13;41.30;;;;;;;3.43;78.56;100802.03;4861304;28;100681;-92
2022/11/28 05:46:49;;;;;;;76.57;41.17;;;;;;;3.54;78.26;100787.34;4888908;28;96712;-92
2022/11/28 05:49:15;;;;;;;75.20;41.33;;;;;;;3.58;77.95;100783.91;4859697;28;96737;-93
2022/11/28 05:51:41;;;;;;;76.13;40.10;;;;;;;3.45;77.97;100776.97;4844919;28;100011;-93
2022/11/28 05:54:06;;;;;;;75.97;41.97;;;;;;;3.52;78.03;100785.63;4857227;29;97844;-93
2022/11/28 05:56:32;;;;;;;78.57;41.97;;;;;;;3.54;78.36;100791.69;4830128;28;96692;-94
2022/11/28 05:59:00;;;;;;;75.97;40.73;;;;;;;3.40;78.00;100750.13;4861855;28;96710;-93
2022/11/28 06:01:27;;;;;;;77.50;42.03;;;;;;;3.45;78.40;100752.75;4827218;29;101786;-94
2022/11/28 06:04:01;;;;;;;79.00;44.10;;;;;;;3.52;77.47;100744.97;4860525;29;98882;-93
2022/11/28 06:07:19;;;;;;;74.88;42.83;;;;;;;3.65;77.65;100768.34;4847148;29;96636;-94
2022/11/28 06:09:45;;;;;;;74.73;40.33;;;;;;;3.55;77.98;100768.34;4862373;29;96719;-93
2022/11/28 06:12:10;;;;;;;79.83;43.73;;;;;;;3.48;77.90;100763.13;4860948;29;98353;-93
2022/11/28 06:14:36;;;;;;;73.53;40.03;;;;;;;3.53;77.60;100761.41;4829814;29;100492;-93
2022/11/28 06:17:01;;;;;;;74.43;42.60;;;;;;;3.56;78.17;100759.69;4836913;28;96634;-93
2022/11/28 06:19:27;;;;;;;78.53;42.57;;;;;;;3.54;78.11;100770.91;4892935;28;96961;-93
2022/11/28 06:22:34;;;;;;;79.87;43.23;;;;;;;3.66;78.27;100765.75;4855339;29;99947;-93
2022/11/28 06:25:00;;;;;;;75.67;40.67;;;;;;;3.71;77.45;100763.16;4864161;28;101565;-94
2022/11/28 06:27:25;;;;;;;81.77;42.37;;;;;;;3.71;77.24;100753.63;4848787;28;96639;-94
2022/11/28 06:29:51;;;;;;;88.70;45.83;;;;;;;3.72;77.46;100757.09;4864670;28;96867;-94
2022/11/28 06:32:16;;;;;;;87.30;45.17;;;;;;;3.54;77.50;100748.41;4863787;28;98612;-94
2022/11/28 06:34:42;;;;;;;83.77;44.73;;;;;;;3.54;78.34;100757.94;4848508;28;101343;-94
2022/11/28 06:37:07;;;;;;;78.97;43.03;;;;;;;3.53;78.13;100753.63;4848569;28;96620;-93
2022/11/28 07:06:54;;;;;;;86.50;43.70;;;;;;;3.63;77.95;100750.16;4897093;28;96541;-94
2022/11/28 07:09:19;;;;;;;91.50;46.80;;;;;;;3.82;77.06;100751.06;4850454;28;96708;-91
2022/11/28 07:11:45;;;;;;;89.93;49.23;;;;;;;3.59;77.11;100725.94;4855057;28;100531;-90
2022/11/28 07:14:10;;;;;;;90.50;47.00;;;;;;;3.69;77.09;100742.38;4846515;28;102028;-91
2022/11/28 07:16:36;;;;;;;87.50;43.87;;;;;;;3.72;77.58;100752.75;4861041;28;97200;-90
2022/11/28 07:19:03;;;;;;;82.23;44.20;;;;;;;3.72;76.80;100744.97;4840994;28;97490;-93
2022/11/28 07:21:28;;;;;;;85.37;44.60;;;;;;;3.72;77.10;100749.31;4837770;28;100148;-92
2022/11/28 07:23:54;;;;;;;82.60;42.30;;;;;;;3.75;77.08;100757.97;4848655;28;100928;-92
2022/11/28 07:26:20;;;;;;;84.37;46.17;;;;;;;3.43;76.59;100710.31;4859220;28;97174;-92
2022/11/28 07:28:46;;;;;;;83.43;42.50;;;;;;;3.62;76.49;100757.09;4849482;28;97135;-92
2022/11/28 07:31:21;;;;;;;79.50;41.33;;;;;;;3.60;76.86;100756.22;4844025;28;101425;-93
2022/11/28 07:33:48;;;;;;;82.67;43.70;;;;;;;3.70;76.48;100746.72;4861857;28;101530;-93
2022/11/28 07:36:22;;;;;;;78.13;42.50;;;;;;;3.40;76.46;100712.09;4862367;28;96864;-92
2022/11/28 07:38:49;;;;;;;83.47;44.13;;;;;;;3.69;76.68;100746.72;4847938;28;97059;-93
2022/11/28 07:41:15;;;;;;;77.90;44.00;;;;;;;3.56;76.24;100717.28;4857707;28;100069;-92
2022/11/28 07:43:44;;;;;;;89.10;46.83;;;;;;;3.82;75.56;100753.66;4864379;28;99701;-92
2022/11/28 07:46:12;;;;;;;80.67;45.63;;;;;;;3.58;76.07;100749.31;4865554;28;96783;-96
2022/11/28 07:48:37;;;;;;;87.17;47.30;;;;;;;3.60;76.49;100744.97;4843394;28;97338;-83
2022/11/28 07:51:05;;;;;;;87.47;48.77;;;;;;;3.57;76.26;100752.75;4843723;28;101538;-89
2022/11/28 07:53:31;;;;;;;81.53;46.03;;;;;;;3.51;76.99;100732.84;4861413;28;100262;-87
2022/11/28 07:56:02;;;;;;;86.70;48.00;;;;;;;3.56;77.04;100736.31;4861468;28;96937;-87
2022/11/28 07:58:28;;;;;;;80.78;45.10;;;;;;;3.55;76.96;100734.59;4848884;28;97571;-89
2022/11/28 08:00:53;;;;;;;81.17;45.23;;;;;;;3.63;76.99;100743.22;4847969;28;101178;-89
2022/11/28 08:03:18;;;;;;;86.83;48.17;;;;;;;3.52;76.58;100697.34;4845577;28;100190;-90
2022/11/28 08:05:48;;;;;;;81.93;45.50;;;;;;;3.77;76.80;100732.84;4851214;28;97093;-91
2022/11/28 08:08:18;;;;;;;86.13;46.50;;;;;;;3.86;76.47;100726.81;4855954;28;97226;-90
2022/11/28 08:10:43;;;;;;;82.37;45.37;;;;;;;3.60;76.39;100683.50;4841448;28;100156;-90
2022/11/28 08:13:12;;;;;;;89.00;49.00;;;;;;;4.01;76.02;100723.34;4855244;28;101479;-96
2022/11/28 08:15:38;;;;;;;81.70;45.87;;;;;;;3.75;76.40;100694.78;4838189;28;97227;-96
2022/11/28 08:18:14;;;;;;;88.93;49.83;;;;;;;3.60;75.96;100654.09;4865285;28;96961;-96
2022/11/28 08:20:39;;;;;;;85.47;46.57;;;;;;;3.43;75.89;100640.25;4858516;28;100064;-96
2022/11/28 08:23:05;;;;;;;86.17;48.73;;;;;;;3.74;76.37;100686.13;4860825;28;100308;-95
2022/11/28 08:25:38;;;;;;;76.93;45.50;;;;;;;3.58;75.98;100659.31;4843987;28;96674;-95
2022/11/28 08:28:16;;;;;;;84.53;45.53;;;;;;;3.57;75.87;100648.91;4850608;28;96776;-96
2022/11/28 08:30:49;;;;;;;79.70;42.60;;;;;;;3.54;75.42;100646.31;4860046;28;100949;-95
2022/11/28 08:33:15;;;;;;;69.37;41.00;;;;;;;3.97;75.24;100688.69;4853409;28;99911;-92
2022/11/28 08:35:40;;;;;;;71.00;41.43;;;;;;;3.96;74.82;100678.34;4848934;28;97256;-93
2022/11/28 08:38:06;;;;;;;68.00;39.63;;;;;;;4.00;74.92;100685.25;4853138;28;97003;-95
2022/11/28 08:40:37;;;;;;;66.90;42.23;;;;;;;3.71;74.66;100635.94;4864477;28;101462;-96
2022/11/28 08:43:15;;;;;;;;;;;;;;;;;;;;;
2022/11/28 08:46:00;;;;;;;59.07;36.50;;;;;;;3.99;74.55;100668.78;4802084;29;97863;-95
2022/11/28 08:48:26;;;;;;;62.77;39.83;;;;;;;4.07;73.78;100677.44;4808267;29;96916;-94
2022/11/28 08:50:51;;;;;;;70.33;40.23;;;;;;;4.21;74.37;100705.13;4793799;29;98642;-89
2022/11/28 08:53:17;;;;;;;65.27;38.23;;;;;;;4.25;74.27;100699.94;4792318;29;98923;-91
2022/11/28 08:55:43;;;;;;;59.67;37.37;;;;;;;4.27;73.51;100700.75;4783636;29;97502;-82
2022/11/28 08:58:10;;;;;;;64.20;37.70;;;;;;;4.24;73.73;100700.78;4795233;29;98168;-82
2022/11/28 09:00:36;;;;;;;65.93;42.07;;;;;;;4.23;74.10;100693.84;4795834;29;98437;-83
2022/11/28 09:03:01;;;;;;;60.53;38.60;;;;;;;4.19;73.93;100676.56;4796833;29;101452;-84
2022/11/28 09:05:28;;;;;;;63.60;39.57;;;;;;;4.41;73.61;100694.69;4798283;29;97651;-84
2022/11/28 09:07:54;;;;;;;62.50;38.67;;;;;;;4.29;73.94;100672.19;4797862;29;97403;-84
2022/11/28 09:10:20;;;;;;;69.67;40.20;;;;;;;4.39;73.91;100680.81;4782157;29;98615;-84
2022/11/28 09:12:45;;;;;;;61.37;39.43;;;;;;;4.60;73.17;100674.69;4765584;29;101303;-84
2022/11/28 09:15:11;;;;;;;63.90;37.07;;;;;;;4.71;73.49;100685.91;4797053;29;97130;-84
2022/11/28 09:17:36;;;;;;;58.77;36.10;;;;;;;4.89;72.79;100658.97;4844157;28;97010;-83
2022/11/28 09:20:03;;;;;;;60.33;37.43;;;;;;;5.40;71.12;100680.31;4860447;28;98583;-85
2022/11/28 09:22:28;;;;;;;55.70;34.67;;;;;;;5.60;70.29;100668.00;4857976;28;97659;-83
2022/11/28 09:24:54;;;;;;;50.03;31.30;;;;;;;5.62;70.70;100678.41;4859224;28;96702;-88
2022/11/28 09:27:19;;;;;;;48.43;31.20;;;;;;;5.47;71.00;100662.91;4849208;28;97297;-88
2022/11/28 09:29:45;;;;;;;45.67;29.60;;;;;;;5.55;71.07;100674.97;4855438;28;98015;-90
2022/11/28 09:32:10;;;;;;;46.20;30.47;;;;;;;5.43;70.80;100667.28;4854269;28;101664;-88
2022/11/28 09:34:36;;;;;;;50.33;30.60;;;;;;;5.40;71.44;100673.34;4838332;28;96917;-95
2022/11/28 09:37:01;;;;;;;48.43;30.37;;;;;;;5.22;71.21;100650.06;4843278;28;97012;-88
2022/11/28 09:39:27;;;;;;;45.00;28.80;;;;;;;5.18;70.44;100628.41;4868454;28;101362;-84
2022/11/28 09:42:33;;;;;;;48.03;30.33;;;;;;;5.63;70.07;100669.72;4860155;28;97179;-83
2022/11/28 09:45:09;;;;;;;47.53;29.87;;;;;;;5.59;69.65;100649.81;4864628;28;96788;-87
2022/11/28 09:47:35;;;;;;;46.23;30.43;;;;;;;5.62;70.14;100653.22;4860645;28;97532;-85
2022/11/28 09:50:15;;;;;;;46.60;28.73;;;;;;;5.55;69.82;100642.88;4850901;28;101107;-88
2022/11/28 09:53:02;;;;;;;44.67;29.07;;;;;;;5.85;69.84;100639.16;4863604;28;97596;-87
2022/11/28 09:55:42;;;;;;;49.37;29.27;;;;;;;6.14;68.92;100641.50;4874303;28;97134;-86
2022/11/28 09:58:35;;;;;;;47.10;30.33;;;;;;;6.25;68.14;100626.56;4856114;28;97580;-88
2022/11/28 10:01:09;;;;;;;44.30;29.97;;;;;;;6.58;66.94;100625.31;4856575;28;100231;-86
2022/11/28 10:03:47;;;;;;;46.60;28.90;;;;;;;6.51;66.99;100628.00;4868766;28;98055;-85
2022/11/28 10:06:44;;;;;;;44.53;26.37;;;;;;;6.78;66.82;100618.97;4860776;28;96799;-84
2022/11/28 10:09:10;;;;;;;42.87;27.63;;;;;;;7.01;66.63;100618.63;4844564;28;97833;-86
2022/11/28 10:11:49;;;;;;;42.77;27.33;;;;;;;7.25;66.04;100600.00;4868272;28;97390;-87
2022/11/28 10:14:36;;;;;;;43.30;28.40;;;;;;;7.14;66.36;100612.34;4835889;28;101479;-85
2022/11/28 10:17:05;;;;;;;39.15;26.27;;;;;;;6.70;67.08;100611.25;4857358;28;96729;-86
2022/11/28 10:19:41;;;;;;;47.10;28.30;;;;;;;6.43;67.55;100624.63;4854624;28;97178;-86
2022/11/28 10:22:12;;;;;;;41.70;26.03;;;;;;;6.03;68.39;100614.66;4833652;28;99863;-86
2022/11/28 10:24:40;;;;;;;38.53;26.02;;;;;;;5.95;69.16;100616.50;4841822;28;99923;-87
2022/11/28 10:27:06;;;;;;;43.10;27.20;;;;;;;5.63;69.79;100588.97;4854920;28;97086;-88
2022/11/28 10:29:41;;;;;;;41.77;26.30;;;;;;;5.73;70.27;100595.84;4844823;28;97580;-87
2022/11/28 10:32:13;;;;;;;41.80;26.63;;;;;;;5.74;70.04;100586.28;4859186;28;101559;-87
2022/11/28 10:34:39;;;;;;;43.17;25.80;;;;;;;5.95;69.96;100604.31;4843551;28;101485;-86
2022/11/28 10:37:30;;;;;;;44.07;25.90;;;;;;;6.01;69.70;100601.66;4848691;28;97369;-85
2022/11/28 10:40:11;;;;;;;40.72;25.77;;;;;;;5.95;69.79;100580.88;4855635;28;97560;-86
2022/11/28 10:42:44;;;;;;;43.63;25.70;;;;;;;6.02;69.93;100573.84;4838884;28;100135;-86
2022/11/28 10:45:28;;;;;;;40.63;25.53;;;;;;;6.26;69.23;100597.03;4849222;28;101278;-86
2022/11/28 10:48:24;;;;;;;36.27;24.63;;;;;;;6.12;69.42;100580.69;4846647;28;97918;-84
2022/11/28 10:50:59;;;;;;;35.90;23.47;;;;;;;6.12;69.63;100585.91;4852617;28;97152;-84
2022/11/28 10:53:36;;;;;;;37.67;24.43;;;;;;;6.03;68.91;100578.19;4858120;28;100647;-85
2022/11/28 10:56:10;;;;;;;34.47;22.73;;;;;;;5.90;69.64;100570.47;4866597;28;98400;-85
2022/11/28 10:58:47;;;;;;;38.57;23.03;;;;;;;5.99;68.73;100584.28;4851446;28;97216;-86
2022/11/28 11:01:13;;;;;;;37.37;23.30;;;;;;;6.02;69.48;100574.72;4847049;28;97227;-86
2022/11/28 11:03:39;;;;;;;36.50;22.97;;;;;;;6.02;68.92;100566.00;4845127;28;98066;-86
2022/11/28 11:06:05;;;;;;;38.07;23.23;;;;;;;6.03;68.86;100563.41;4834785;28;101192;-87
2022/11/28 11:08:36;;;;;;;38.47;22.67;;;;;;;6.24;68.61;100567.50;4850490;28;96871;-86
2022/11/28 11:11:08;;;;;;;32.83;22.00;;;;;;;6.19;68.97;100568.44;4848000;28;97776;-87
2022/11/28 11:14:12;;;;;;;33.50;21.67;;;;;;;5.93;68.99;100545.25;4854910;28;100987;-86
2022/11/28 11:16:54;;;;;;;35.83;21.77;;;;;;;5.89;69.42;100552.25;4848565;28;100360;-84
2022/11/28 11:19:34;;;;;;;35.92;20.95;;;;;;;5.98;69.43;100556.53;4854834;28;98226;-84
2022/11/28 11:22:03;;;;;;;33.50;22.47;;;;;;;6.11;69.35;100553.75;4842238;28;97431;-84
2022/11/28 11:24:29;;;;;;;35.87;22.40;;;;;;;6.04;69.70;100541.66;4867680;28;98216;-85
2022/11/28 11:27:03;;;;;;;36.80;21.13;;;;;;;5.78;69.69;100515.88;4853965;28;100983;-83
2022/11/28 11:29:34;;;;;;;35.70;23.17;;;;;;;6.01;70.16;100546.91;4847706;28;97261;-84
2022/11/28 11:32:02;;;;;;;32.03;19.37;;;;;;;6.05;69.72;100553.84;4862606;28;97680;-85
2022/11/28 11:34:30;;;;;;;29.23;19.07;;;;;;;6.00;69.85;100546.94;4855685;28;101746;-86
2022/11/28 11:37:16;;;;;;;32.77;20.23;;;;;;;5.96;69.73;100519.19;4852149;28;97945;-86
2022/11/28 11:39:47;;;;;;;28.33;18.40;;;;;;;6.04;69.86;100527.78;4841447;29;96787;-86
2022/11/28 11:42:22;;;;;;;30.93;19.67;;;;;;;5.97;69.52;100532.22;4832706;28;97206;-86
2022/11/28 11:44:48;;;;;;;30.40;18.70;;;;;;;6.03;69.64;100528.66;4857566;28;98575;-86
2022/11/28 11:47:13;;;;;;;31.03;17.93;;;;;;;5.99;70.10;100526.97;4857067;28;98272;-84
2022/11/28 11:49:40;;;;;;;25.67;17.57;;;;;;;6.12;69.13;100523.34;4838839;28;96860;-88
2022/11/28 11:52:11;;;;;;;26.73;16.87;;;;;;;6.02;69.60;100517.38;4845984;28;97021;-86
2022/11/28 11:54:38;;;;;;;30.15;18.15;;;;;;;6.01;69.39;100515.66;4857248;28;101529;-84
2022/11/28 11:57:04;;;;;;;29.70;18.73;;;;;;;5.97;69.48;100505.28;4850796;28;101928;-85
2022/11/28 11:59:39;;;;;;;31.63;19.10;;;;;;;6.17;69.18;100512.84;4850324;28;97537;-85
2022/11/28 12:02:18;;;;;;;30.30;18.37;;;;;;;6.07;69.45;100505.13;4831494;29;96952;-86
2022/11/28 12:04:49;;;;;;;29.40;18.20;;;;;;;6.04;69.44;100502.56;4840508;28;101564;-85
2022/11/28 12:07:47;;;;;;;27.07;17.70;;;;;;;6.21;69.46;100504.97;4836020;28;102103;-84
2022/11/28 12:10:16;;;;;;;26.17;18.07;;;;;;;6.13;69.40;100510.28;4856787;28;96816;-84
2022/11/28 12:12:42;;;;;;;29.03;17.53;;;;;;;6.07;70.01;100506.88;4849909;28;97233;-85
2022/11/28 12:15:51;;;;;;;26.70;16.60;;;;;;;6.01;69.74;100499.16;4833167;28;100385;-86
2022/11/28 12:18:23;;;;;;;26.23;16.83;;;;;;;6.04;70.05;100502.56;4854828;28;101931;-86